sensor_id;sensor_type;location;lat;lon;timestamp;P1;durP1;ratioP1;P2;durP2;ratioP2
63900;SDS011;50538;53.482;10.294;2023-09-19T00:08:55;2.33;;;0.70;;
63900;SDS011;50538;53.482;10.294;2023-09-19T00:18:56;1.55;;;0.80;;
63900;SDS011;50538;53.482;10.294;2023-09-19T00:28:56;2.47;;;1.07;;
63900;SDS011;50538;53.482;10.294;2023-09-19T00:38:57;4.93;;;0.93;;
63900;SDS011;50538;53.482;10.294;2023-09-19T00:48:57;2.42;;;0.90;;
63900;SDS011;50538;53.482;10.294;2023-09-19T00:58:59;1.83;;;1.00;;
63900;SDS011;50538;53.482;10.294;2023-09-19T01:08:59;5.03;;;1.17;;
63900;SDS011;50538;53.482;10.294;2023-09-19T01:40:15;4.10;;;1.58;;
63900;SDS011;50538;53.482;10.294;2023-09-19T01:50:29;3.45;;;1.50;;
63900;SDS011;50538;53.482;10.294;2023-09-19T02:00:32;2.90;;;1.35;;
63900;SDS011;50538;53.482;10.294;2023-09-19T02:10:36;7.97;;;1.77;;
63900;SDS011;50538;53.482;10.294;2023-09-19T02:20:36;4.38;;;1.58;;
63900;SDS011;50538;53.482;10.294;2023-09-19T02:30:37;2.47;;;1.20;;
63900;SDS011;50538;53.482;10.294;2023-09-19T02:40:39;3.90;;;1.23;;
63900;SDS011;50538;53.482;10.294;2023-09-19T02:50:39;5.38;;;1.65;;
63900;SDS011;50538;53.482;10.294;2023-09-19T03:00:40;4.13;;;1.42;;
63900;SDS011;50538;53.482;10.294;2023-09-19T03:10:48;5.82;;;1.52;;
63900;SDS011;50538;53.482;10.294;2023-09-19T03:20:55;4.28;;;1.40;;
63900;SDS011;50538;53.482;10.294;2023-09-19T03:41:03;6.63;;;1.52;;
63900;SDS011;50538;53.482;10.294;2023-09-19T03:51:04;3.92;;;1.30;;
63900;SDS011;50538;53.482;10.294;2023-09-19T04:01:05;4.35;;;1.20;;
63900;SDS011;50538;53.482;10.294;2023-09-19T04:11:06;7.47;;;1.08;;
63900;SDS011;50538;53.482;10.294;2023-09-19T04:21:07;3.90;;;0.87;;
63900;SDS011;50538;53.482;10.294;2023-09-19T04:31:07;0.85;;;0.40;;
63900;SDS011;50538;53.482;10.294;2023-09-19T04:41:08;2.20;;;0.77;;
63900;SDS011;50538;53.482;10.294;2023-09-19T04:51:09;4.05;;;0.80;;
63900;SDS011;50538;53.482;10.294;2023-09-19T05:01:10;1.55;;;0.50;;
63900;SDS011;50538;53.482;10.294;2023-09-19T05:11:12;2.15;;;0.70;;
63900;SDS011;50538;53.482;10.294;2023-09-19T05:21:12;5.97;;;1.17;;
63900;SDS011;50538;53.482;10.294;2023-09-19T05:31:13;3.30;;;0.68;;
63900;SDS011;50538;53.482;10.294;2023-09-19T05:41:15;2.80;;;0.70;;
63900;SDS011;50538;53.482;10.294;2023-09-19T05:51:16;3.90;;;0.80;;
63900;SDS011;50538;53.482;10.294;2023-09-19T06:01:17;3.30;;;0.80;;
63900;SDS011;50538;53.482;10.294;2023-09-19T06:11:20;3.20;;;0.90;;
63900;SDS011;50538;53.482;10.294;2023-09-19T06:21:22;9.73;;;1.30;;
63900;SDS011;50538;53.482;10.294;2023-09-19T06:31:23;4.43;;;0.80;;
63900;SDS011;50538;53.482;10.294;2023-09-19T06:41:26;3.90;;;0.98;;
63900;SDS011;50538;53.482;10.294;2023-09-19T06:51:26;6.25;;;1.42;;
63900;SDS011;50538;53.482;10.294;2023-09-19T07:01:27;5.18;;;1.45;;
63900;SDS011;50538;53.482;10.294;2023-09-19T07:11:27;4.60;;;1.23;;
63900;SDS011;50538;53.482;10.294;2023-09-19T07:21:27;3.20;;;0.90;;
63900;SDS011;50538;53.482;10.294;2023-09-19T07:31:28;4.68;;;1.35;;
63900;SDS011;50538;53.482;10.294;2023-09-19T07:41:29;4.47;;;1.52;;
63900;SDS011;50538;53.482;10.294;2023-09-19T07:51:32;6.43;;;1.35;;
63900;SDS011;50538;53.482;10.294;2023-09-19T08:01:33;5.80;;;1.33;;
63900;SDS011;50538;53.482;10.294;2023-09-19T08:11:35;5.13;;;1.20;;
63900;SDS011;50538;53.482;10.294;2023-09-19T08:21:36;6.70;;;1.35;;
63900;SDS011;50538;53.482;10.294;2023-09-19T08:31:37;9.05;;;1.50;;
63900;SDS011;50538;53.482;10.294;2023-09-19T08:41:38;7.57;;;1.50;;
63900;SDS011;50538;53.482;10.294;2023-09-19T08:51:42;7.53;;;1.00;;
63900;SDS011;50538;53.482;10.294;2023-09-19T09:01:45;4.60;;;0.98;;
63900;SDS011;50538;53.482;10.294;2023-09-19T09:11:48;6.38;;;1.23;;
63900;SDS011;50538;53.482;10.294;2023-09-19T09:21:51;6.43;;;1.20;;
63900;SDS011;50538;53.482;10.294;2023-09-19T09:31:51;5.22;;;1.33;;
63900;SDS011;50538;53.482;10.294;2023-09-19T09:41:52;2.67;;;0.90;;
63900;SDS011;50538;53.482;10.294;2023-09-19T10:02:07;3.22;;;0.98;;
63900;SDS011;50538;53.482;10.294;2023-09-19T10:12:07;3.22;;;1.00;;
63900;SDS011;50538;53.482;10.294;2023-09-19T10:22:13;7.35;;;1.08;;
63900;SDS011;50538;53.482;10.294;2023-09-19T10:32:15;2.70;;;0.60;;
63900;SDS011;50538;53.482;10.294;2023-09-19T10:42:19;3.47;;;1.00;;
63900;SDS011;50538;53.482;10.294;2023-09-19T10:52:21;3.97;;;0.90;;
63900;SDS011;50538;53.482;10.294;2023-09-19T11:02:25;5.20;;;1.05;;
63900;SDS011;50538;53.482;10.294;2023-09-19T11:43:29;8.38;;;1.23;;
63900;SDS011;50538;53.482;10.294;2023-09-19T11:53:31;4.28;;;0.77;;
63900;SDS011;50538;53.482;10.294;2023-09-19T12:03:34;5.15;;;1.08;;
63900;SDS011;50538;53.482;10.294;2023-09-19T12:13:42;4.32;;;0.93;;
63900;SDS011;50538;53.482;10.294;2023-09-19T12:23:44;5.37;;;0.80;;
63900;SDS011;50538;53.482;10.294;2023-09-19T12:33:44;9.23;;;1.38;;
63900;SDS011;50538;53.482;10.294;2023-09-19T12:43:45;2.03;;;0.80;;
63900;SDS011;50538;53.482;10.294;2023-09-19T12:53:46;4.10;;;1.10;;
63900;SDS011;50538;53.482;10.294;2023-09-19T13:14:21;8.00;;;1.00;;
63900;SDS011;50538;53.482;10.294;2023-09-19T13:24:29;6.97;;;1.13;;
63900;SDS011;50538;53.482;10.294;2023-09-19T13:34:30;4.15;;;0.95;;
63900;SDS011;50538;53.482;10.294;2023-09-19T13:44:31;6.60;;;1.30;;
63900;SDS011;50538;53.482;10.294;2023-09-19T13:54:32;4.72;;;1.13;;
63900;SDS011;50538;53.482;10.294;2023-09-19T14:04:32;4.85;;;1.10;;
63900;SDS011;50538;53.482;10.294;2023-09-19T14:14:34;6.90;;;1.50;;
63900;SDS011;50538;53.482;10.294;2023-09-19T14:24:35;5.40;;;1.02;;
63900;SDS011;50538;53.482;10.294;2023-09-19T14:34:36;7.85;;;1.38;;
63900;SDS011;50538;53.482;10.294;2023-09-19T14:44:41;4.53;;;1.15;;
63900;SDS011;50538;53.482;10.294;2023-09-19T14:54:44;4.83;;;1.13;;
63900;SDS011;50538;53.482;10.294;2023-09-19T15:04:45;4.35;;;1.08;;
63900;SDS011;50538;53.482;10.294;2023-09-19T15:14:48;4.25;;;0.95;;
63900;SDS011;50538;53.482;10.294;2023-09-19T15:24:52;3.08;;;1.15;;
63900;SDS011;50538;53.482;10.294;2023-09-19T15:34:52;5.15;;;1.27;;
63900;SDS011;50538;53.482;10.294;2023-09-19T15:44:53;5.63;;;1.57;;
63900;SDS011;50538;53.482;10.294;2023-09-19T15:54:55;3.67;;;1.25;;
63900;SDS011;50538;53.482;10.294;2023-09-19T16:04:56;7.65;;;1.80;;
63900;SDS011;50538;53.482;10.294;2023-09-19T16:14:57;5.85;;;1.10;;
63900;SDS011;50538;53.482;10.294;2023-09-19T16:24:58;3.65;;;1.10;;
63900;SDS011;50538;53.482;10.294;2023-09-19T16:34:59;2.58;;;0.90;;
63900;SDS011;50538;53.482;10.294;2023-09-19T16:45:00;4.20;;;1.15;;
63900;SDS011;50538;53.482;10.294;2023-09-19T16:55:00;8.05;;;1.35;;
63900;SDS011;50538;53.482;10.294;2023-09-19T17:05:00;6.55;;;1.10;;
63900;SDS011;50538;53.482;10.294;2023-09-19T17:25:11;1.98;;;0.90;;
63900;SDS011;50538;53.482;10.294;2023-09-19T17:35:18;5.30;;;1.00;;
63900;SDS011;50538;53.482;10.294;2023-09-19T17:45:19;3.70;;;0.88;;
63900;SDS011;50538;53.482;10.294;2023-09-19T17:55:19;3.67;;;0.80;;
63900;SDS011;50538;53.482;10.294;2023-09-19T18:05:20;4.38;;;0.90;;
63900;SDS011;50538;53.482;10.294;2023-09-19T18:15:21;2.80;;;0.90;;
63900;SDS011;50538;53.482;10.294;2023-09-19T18:25:22;5.78;;;0.93;;
63900;SDS011;50538;53.482;10.294;2023-09-19T18:35:23;2.33;;;1.00;;
63900;SDS011;50538;53.482;10.294;2023-09-19T18:45:31;4.05;;;1.10;;
63900;SDS011;50538;53.482;10.294;2023-09-19T18:55:32;1.25;;;0.45;;
63900;SDS011;50538;53.482;10.294;2023-09-19T19:05:32;2.80;;;0.70;;
63900;SDS011;50538;53.482;10.294;2023-09-19T19:15:33;1.70;;;0.73;;
63900;SDS011;50538;53.482;10.294;2023-09-19T19:25:34;1.97;;;0.80;;
63900;SDS011;50538;53.482;10.294;2023-09-19T19:35:36;3.53;;;0.80;;
63900;SDS011;50538;53.482;10.294;2023-09-19T19:45:37;5.82;;;0.63;;
63900;SDS011;50538;53.482;10.294;2023-09-19T19:55:38;4.30;;;1.30;;
63900;SDS011;50538;53.482;10.294;2023-09-19T20:05:40;3.13;;;0.70;;
63900;SDS011;50538;53.482;10.294;2023-09-19T20:15:41;1.85;;;0.50;;
63900;SDS011;50538;53.482;10.294;2023-09-19T20:25:42;2.50;;;0.60;;
63900;SDS011;50538;53.482;10.294;2023-09-19T20:35:45;1.83;;;0.50;;
63900;SDS011;50538;53.482;10.294;2023-09-19T20:45:45;1.93;;;0.60;;
63900;SDS011;50538;53.482;10.294;2023-09-19T20:55:46;1.95;;;0.80;;
63900;SDS011;50538;53.482;10.294;2023-09-19T21:05:47;3.85;;;0.90;;
63900;SDS011;50538;53.482;10.294;2023-09-19T21:15:47;2.00;;;0.40;;
63900;SDS011;50538;53.482;10.294;2023-09-19T21:25:56;3.53;;;0.60;;
63900;SDS011;50538;53.482;10.294;2023-09-19T21:35:57;6.43;;;0.60;;
63900;SDS011;50538;53.482;10.294;2023-09-19T21:45:57;3.33;;;1.02;;
63900;SDS011;50538;53.482;10.294;2023-09-19T21:55:58;1.17;;;0.43;;
63900;SDS011;50538;53.482;10.294;2023-09-19T22:06:04;2.78;;;0.63;;
63900;SDS011;50538;53.482;10.294;2023-09-19T22:16:05;4.45;;;0.80;;
63900;SDS011;50538;53.482;10.294;2023-09-19T22:26:06;2.30;;;0.70;;
63900;SDS011;50538;53.482;10.294;2023-09-19T22:36:06;3.15;;;0.82;;
63900;SDS011;50538;53.482;10.294;2023-09-19T22:46:07;3.10;;;0.70;;
63900;SDS011;50538;53.482;10.294;2023-09-19T22:56:09;2.10;;;0.68;;
63900;SDS011;50538;53.482;10.294;2023-09-19T23:06:13;3.72;;;0.80;;
63900;SDS011;50538;53.482;10.294;2023-09-19T23:16:21;5.72;;;0.93;;
63900;SDS011;50538;53.482;10.294;2023-09-19T23:26:28;1.10;;;0.50;;
63900;SDS011;50538;53.482;10.294;2023-09-19T23:36:28;2.70;;;0.70;;
63900;SDS011;50538;53.482;10.294;2023-09-19T23:46:28;4.60;;;0.80;;
63900;SDS011;50538;53.482;10.294;2023-09-19T23:56:33;3.08;;;0.77;;
